createdAt,value
2023-03-28T00:02:17.054Z,1.38
2023-03-28T00:04:45.681Z,1.98
2023-03-28T00:07:16.901Z,1.08
2023-03-28T00:09:45.642Z,1.48
2023-03-28T00:12:14.087Z,1.38
2023-03-28T00:14:42.608Z,1.10
2023-03-28T00:17:18.131Z,1.20
2023-03-28T00:19:46.955Z,1.42
2023-03-28T00:22:17.830Z,1.02
2023-03-28T00:24:48.831Z,0.98
2023-03-28T00:27:17.863Z,1.55
2023-03-28T00:29:46.330Z,1.05
2023-03-28T00:32:20.826Z,1.20
2023-03-28T00:34:56.363Z,2.30
2023-03-28T00:37:34.570Z,1.15
2023-03-28T00:40:09.920Z,0.90
2023-03-28T00:42:42.908Z,1.27
2023-03-28T00:45:12.457Z,0.95
2023-03-28T00:47:45.785Z,1.20
2023-03-28T00:50:20.794Z,1.00
2023-03-28T00:52:52.350Z,0.85
2023-03-28T00:55:22.409Z,1.13
2023-03-28T00:57:51.383Z,1.35
2023-03-28T01:00:22.850Z,0.93
2023-03-28T01:02:55.628Z,0.98
2023-03-28T01:05:27.078Z,1.35
2023-03-28T01:08:01.210Z,1.40
2023-03-28T01:10:30.343Z,0.90
2023-03-28T01:12:59.723Z,1.02
2023-03-28T01:15:30.632Z,1.00
2023-03-28T01:18:10.844Z,1.50
2023-03-28T01:20:54.860Z,1.58
2023-03-28T01:23:51.253Z,1.85
2023-03-28T01:26:40.621Z,1.35
2023-03-28T01:29:21.146Z,1.20
2023-03-28T01:32:11.410Z,1.02
2023-03-28T01:35:21.445Z,0.90
2023-03-28T01:37:55.081Z,0.93
2023-03-28T01:40:33.964Z,1.58
2023-03-28T01:43:12.004Z,1.70
2023-03-28T01:45:48.319Z,2.22
2023-03-28T01:48:21.794Z,1.63
2023-03-28T01:50:52.975Z,1.08
2023-03-28T01:53:28.105Z,1.20
2023-03-28T01:56:03.257Z,1.65
2023-03-28T01:58:34.448Z,1.23
2023-03-28T02:01:09.088Z,1.10
2023-03-28T02:03:41.959Z,1.17
2023-03-28T02:06:41.029Z,1.10
2023-03-28T02:09:16.981Z,0.93
2023-03-28T02:12:21.558Z,1.15
2023-03-28T02:15:05.110Z,1.73
2023-03-28T02:17:34.705Z,0.88
2023-03-28T02:20:12.730Z,1.33
2023-03-28T02:23:02.325Z,1.02
2023-03-28T02:26:10.828Z,1.30
2023-03-28T02:28:58.040Z,1.67
2023-03-28T02:31:40.145Z,1.13
2023-03-28T02:34:10.465Z,1.10
2023-03-28T02:36:44.993Z,1.33
2023-03-28T02:39:28.358Z,1.23
2023-03-28T02:42:10.032Z,1.20
2023-03-28T02:44:47.818Z,0.95
2023-03-28T02:47:18.412Z,1.58
2023-03-28T02:49:52.895Z,0.75
2023-03-28T02:52:35.034Z,1.17
2023-03-28T02:55:07.814Z,1.55
2023-03-28T02:57:44.291Z,1.10
2023-03-28T03:00:19.285Z,1.65
2023-03-28T03:02:49.369Z,1.65
2023-03-28T03:05:22.846Z,1.33
2023-03-28T03:07:54.420Z,1.60
2023-03-28T03:10:24.980Z,1.08
2023-03-28T03:12:55.408Z,1.63
2023-03-28T03:15:26.020Z,2.22
2023-03-28T03:18:04.538Z,1.67
2023-03-28T03:20:37.001Z,1.30
2023-03-28T03:23:06.362Z,1.20
2023-03-28T03:25:36.818Z,1.33
2023-03-28T03:28:14.515Z,1.40
2023-03-28T03:30:43.752Z,1.50
2023-03-28T03:33:30.542Z,2.05
2023-03-28T03:36:10.034Z,2.25
2023-03-28T03:38:41.141Z,1.50
2023-03-28T03:41:10.875Z,1.35
2023-03-28T03:43:41.472Z,1.13
2023-03-28T03:46:12.513Z,1.25
2023-03-28T03:48:49.508Z,0.98
2023-03-28T03:51:23.490Z,0.90
2023-03-28T03:53:55.807Z,1.30
2023-03-28T03:56:31.772Z,1.40
2023-03-28T03:59:03.559Z,1.15
2023-03-28T04:01:34.081Z,1.20
2023-03-28T04:04:23.693Z,1.15
2023-03-28T04:07:06.614Z,1.80
2023-03-28T04:09:36.544Z,0.90
2023-03-28T04:12:10.028Z,1.48
2023-03-28T04:14:51.714Z,1.63
2023-03-28T04:17:38.026Z,1.35
2023-03-28T04:20:15.547Z,1.50
2023-03-28T04:23:06.188Z,1.10
2023-03-28T04:25:36.388Z,1.75
2023-03-28T04:28:09.416Z,1.27
2023-03-28T04:30:59.891Z,1.48
2023-03-28T04:33:55.751Z,1.30
2023-03-28T04:36:25.898Z,0.90
2023-03-28T04:39:04.405Z,1.23
2023-03-28T04:41:55.606Z,1.00
2023-03-28T04:44:31.541Z,1.58
2023-03-28T04:47:08.877Z,1.63
2023-03-28T04:49:40.115Z,1.10
2023-03-28T04:52:09.441Z,1.00
2023-03-28T04:54:37.959Z,1.40
2023-03-28T04:57:09.259Z,1.52
2023-03-28T04:59:52.356Z,1.27
2023-03-28T05:02:42.585Z,1.00
2023-03-28T05:05:16.840Z,1.60
2023-03-28T05:07:50.075Z,1.30
2023-03-28T05:10:24.018Z,1.33
2023-03-28T05:12:53.652Z,1.38
2023-03-28T05:15:24.277Z,1.00
2023-03-28T05:18:03.214Z,1.73
2023-03-28T05:20:34.452Z,1.55
2023-03-28T05:23:03.503Z,1.67
2023-03-28T05:25:35.106Z,2.67
2023-03-28T05:28:04.459Z,1.92
2023-03-28T05:30:36.420Z,1.77
2023-03-28T05:33:11.556Z,1.40
2023-03-28T05:35:40.781Z,2.08
2023-03-28T05:38:10.143Z,0.90
2023-03-28T05:40:39.379Z,1.30
2023-03-28T05:43:10.227Z,1.30
2023-03-28T05:45:40.200Z,1.30
2023-03-28T05:48:16.039Z,1.40
2023-03-28T05:50:45.597Z,1.60
2023-03-28T05:53:14.250Z,1.42
2023-03-28T05:55:43.030Z,1.40
2023-03-28T05:58:12.949Z,1.75
2023-03-28T06:00:44.861Z,1.65
2023-03-28T06:03:16.393Z,1.88
2023-03-28T06:05:49.588Z,1.50
2023-03-28T06:08:29.084Z,2.00
2023-03-28T06:11:03.898Z,2.25
2023-03-28T06:13:53.814Z,1.77
2023-03-28T06:16:30.594Z,1.80
2023-03-28T06:19:16.467Z,2.42
2023-03-28T06:21:54.062Z,2.92
2023-03-28T06:24:23.927Z,2.10
2023-03-28T06:26:52.843Z,2.72
2023-03-28T06:29:24.633Z,2.40
2023-03-28T06:32:07.280Z,2.80
2023-03-28T06:34:36.520Z,2.20
2023-03-28T06:37:10.067Z,2.28
2023-03-28T06:39:50.873Z,2.47
2023-03-28T06:42:19.690Z,2.22
2023-03-28T06:44:57.645Z,2.13
2023-03-28T06:47:37.775Z,2.58
2023-03-28T06:50:07.918Z,2.47
2023-03-28T06:52:56.177Z,3.15
2023-03-28T06:55:27.065Z,2.60
2023-03-28T06:57:57.595Z,3.35
2023-03-28T07:00:34.920Z,3.03
2023-03-28T07:03:30.583Z,3.03
2023-03-28T07:06:00.784Z,3.58
2023-03-28T07:08:30.953Z,3.28
2023-03-28T07:11:00.021Z,3.40
2023-03-28T07:13:29.912Z,3.22
2023-03-28T07:16:09.831Z,3.47
2023-03-28T07:18:39.241Z,3.72
2023-03-28T07:21:09.591Z,3.70
2023-03-28T07:23:43.161Z,3.90
2023-03-28T07:26:13.918Z,3.53
2023-03-28T07:28:43.445Z,4.53
2023-03-28T07:31:12.331Z,4.72
2023-03-28T07:33:41.256Z,3.95
2023-03-28T07:36:14.721Z,3.72
2023-03-28T07:38:51.861Z,3.88
2023-03-28T07:41:23.038Z,4.60
2023-03-28T07:43:52.125Z,3.63
2023-03-28T07:46:21.191Z,4.07
2023-03-28T07:48:50.592Z,4.07
2023-03-28T07:51:20.503Z,3.83
2023-03-28T07:53:50.495Z,4.25
2023-03-28T07:56:20.145Z,4.45
2023-03-28T07:59:24.220Z,4.07
2023-03-28T08:01:59.744Z,3.50
2023-03-28T08:04:28.679Z,3.85
2023-03-28T08:07:13.380Z,3.58
2023-03-28T08:09:47.658Z,3.95
2023-03-28T08:12:26.615Z,3.83
2023-03-28T08:14:55.474Z,3.85
2023-03-28T08:17:26.659Z,3.38
2023-03-28T08:19:56.387Z,3.63
2023-03-28T08:22:31.584Z,2.83
2023-03-28T08:25:20.181Z,2.85
2023-03-28T08:27:50.000Z,3.05
2023-03-28T08:30:18.777Z,2.75
2023-03-28T08:33:00.945Z,2.65
2023-03-28T08:35:29.378Z,2.08
2023-03-28T08:38:01.426Z,2.22
2023-03-28T08:40:32.140Z,2.33
2023-03-28T08:43:13.226Z,1.95
2023-03-28T08:45:45.634Z,2.42
2023-03-28T08:48:17.716Z,3.25
2023-03-28T08:50:53.501Z,3.70
2023-03-28T08:53:27.865Z,3.47
2023-03-28T08:56:01.591Z,3.67
2023-03-28T08:58:34.794Z,4.25
2023-03-28T09:01:09.824Z,3.65
2023-03-28T09:03:40.799Z,4.20
2023-03-28T09:06:21.422Z,4.43
2023-03-28T09:09:00.175Z,3.53
2023-03-28T09:11:40.617Z,3.65
2023-03-28T09:14:20.153Z,3.60
2023-03-28T09:16:57.391Z,2.88
2023-03-28T09:19:40.617Z,2.95
2023-03-28T09:22:36.820Z,2.45
2023-03-28T09:25:10.716Z,2.13
2023-03-28T09:27:47.802Z,2.60
2023-03-28T09:30:20.774Z,2.10
2023-03-28T09:32:50.601Z,1.83
2023-03-28T09:35:21.755Z,1.85
2023-03-28T09:37:54.510Z,1.70
2023-03-28T09:40:25.972Z,1.95
2023-03-28T09:43:30.472Z,1.70
2023-03-28T09:46:16.821Z,1.70
2023-03-28T09:49:10.644Z,1.80
2023-03-28T09:51:39.538Z,1.40
2023-03-28T09:54:10.305Z,1.13
2023-03-28T09:56:40.469Z,1.80
2023-03-28T09:59:28.312Z,1.10
2023-03-28T10:02:04.446Z,1.00
2023-03-28T10:04:34.771Z,1.08
2023-03-28T10:07:43.665Z,1.05
2023-03-28T10:10:21.908Z,0.90
2023-03-28T10:12:58.826Z,1.27
2023-03-28T10:15:33.917Z,1.05
2023-03-28T10:18:21.924Z,1.00
2023-03-28T10:21:12.498Z,1.65
2023-03-28T10:23:43.742Z,1.25
2023-03-28T10:26:13.732Z,1.10
2023-03-28T10:28:45.719Z,1.42
2023-03-28T10:31:23.656Z,1.48
2023-03-28T10:33:53.858Z,1.55
2023-03-28T10:36:42.845Z,1.45
2023-03-28T10:39:24.651Z,1.85
2023-03-28T10:42:12.062Z,1.05
2023-03-28T10:45:00.973Z,1.00
2023-03-28T10:47:33.113Z,1.20
2023-03-28T10:50:21.759Z,1.15
2023-03-28T10:52:55.076Z,1.42
2023-03-28T10:55:31.812Z,1.00
2023-03-28T10:58:20.282Z,1.48
2023-03-28T11:00:59.892Z,2.08
2023-03-28T11:03:42.350Z,3.20
2023-03-28T11:06:14.508Z,3.58
2023-03-28T11:08:58.082Z,4.53
2023-03-28T11:11:45.460Z,4.20
2023-03-28T11:14:22.427Z,4.00
2023-03-28T11:16:55.571Z,3.80
2023-03-28T11:19:55.986Z,3.08
2023-03-28T11:22:32.899Z,2.50
2023-03-28T11:25:06.920Z,3.58
2023-03-28T11:28:11.182Z,1.70
2023-03-28T11:30:44.159Z,1.42
2023-03-28T11:33:28.723Z,1.92
2023-03-28T11:36:07.789Z,1.45
2023-03-28T11:38:38.890Z,1.80
2023-03-28T11:41:10.934Z,2.13
2023-03-28T11:44:19.748Z,1.40
2023-03-28T11:46:50.987Z,2.15
2023-03-28T11:49:21.462Z,1.33
2023-03-28T11:51:57.665Z,1.35
2023-03-28T11:54:28.566Z,0.90
2023-03-28T11:57:00.343Z,1.50
2023-03-28T11:59:43.762Z,1.30
2023-03-28T12:02:19.670Z,1.58
2023-03-28T12:04:51.825Z,1.45
2023-03-28T12:07:24.285Z,1.70
2023-03-28T12:09:59.806Z,1.35
2023-03-28T12:12:31.496Z,1.85
2023-03-28T12:15:02.828Z,1.73
2023-03-28T12:17:49.453Z,1.65
2023-03-28T12:20:22.601Z,1.60
2023-03-28T12:22:57.720Z,1.23
2023-03-28T12:25:58.132Z,1.35
2023-03-28T12:28:28.923Z,1.58
2023-03-28T12:31:01.836Z,1.40
2023-03-28T12:33:39.113Z,1.48
2023-03-28T12:36:24.543Z,1.15
2023-03-28T12:38:57.863Z,1.45
2023-03-28T12:41:34.997Z,1.55
2023-03-28T12:44:10.142Z,1.45
2023-03-28T12:46:47.041Z,1.30
2023-03-28T12:49:26.449Z,1.63
2023-03-28T12:51:56.990Z,1.33
2023-03-28T12:54:30.276Z,1.83
2023-03-28T12:57:05.253Z,1.95
2023-03-28T12:59:45.576Z,1.35
2023-03-28T13:02:30.573Z,1.30
2023-03-28T13:05:07.971Z,1.17
2023-03-28T13:07:43.338Z,1.50
2023-03-28T13:10:17.276Z,1.30
2023-03-28T13:12:50.259Z,1.00
2023-03-28T13:15:32.840Z,1.40
2023-03-28T13:18:21.859Z,1.42
2023-03-28T13:20:57.877Z,1.80
2023-03-28T13:23:32.657Z,1.10
2023-03-28T13:26:03.559Z,1.52
2023-03-28T13:28:36.064Z,1.52
2023-03-28T13:31:13.052Z,1.42
2023-03-28T13:33:50.693Z,1.20
2023-03-28T13:36:30.729Z,1.65
2023-03-28T13:39:09.615Z,1.63
2023-03-28T13:42:00.967Z,1.63
2023-03-28T13:44:33.085Z,1.17
2023-03-28T13:47:01.984Z,1.70
2023-03-28T13:49:41.379Z,1.63
2023-03-28T13:52:14.904Z,1.65
2023-03-28T13:54:43.594Z,1.48
2023-03-28T13:57:18.135Z,1.80
2023-03-28T13:59:54.906Z,1.80
2023-03-28T14:02:32.157Z,1.70
2023-03-28T14:05:09.400Z,2.85
2023-03-28T14:07:41.470Z,1.88
2023-03-28T14:10:23.536Z,1.73
2023-03-28T14:12:57.087Z,1.50
2023-03-28T14:15:27.271Z,1.83
2023-03-28T14:17:56.698Z,1.38
2023-03-28T14:20:25.610Z,1.60
2023-03-28T14:23:01.085Z,1.83
2023-03-28T14:25:30.804Z,1.85
2023-03-28T14:28:07.994Z,2.05
2023-03-28T14:30:42.709Z,2.20
2023-03-28T14:33:20.714Z,2.10
2023-03-28T14:36:00.323Z,1.30
2023-03-28T14:38:30.027Z,2.35
2023-03-28T14:41:06.010Z,2.05
2023-03-28T14:43:36.837Z,2.25
2023-03-28T14:46:10.111Z,1.60
2023-03-28T14:48:39.914Z,1.60
2023-03-28T14:51:13.067Z,1.77
2023-03-28T14:53:42.798Z,1.60
2023-03-28T14:56:17.586Z,1.98
2023-03-28T14:58:50.102Z,1.83
2023-03-28T15:01:23.198Z,2.35
2023-03-28T15:03:53.898Z,2.40
2023-03-28T15:06:24.366Z,1.45
2023-03-28T15:08:56.426Z,2.25
2023-03-28T15:11:29.311Z,1.98
2023-03-28T15:14:03.612Z,1.48
2023-03-28T15:16:38.012Z,1.85
2023-03-28T15:19:07.880Z,1.73
2023-03-28T15:21:36.756Z,1.85
2023-03-28T15:24:05.761Z,1.88
2023-03-28T15:26:40.583Z,1.60
2023-03-28T15:29:18.878Z,2.33
2023-03-28T15:31:49.850Z,1.95
2023-03-28T15:34:27.413Z,1.95
2023-03-28T15:37:03.181Z,1.75
2023-03-28T15:39:32.842Z,1.45
2023-03-28T15:42:06.401Z,2.50
2023-03-28T15:44:39.607Z,1.92
2023-03-28T15:47:11.056Z,2.53
2023-03-28T15:49:39.965Z,2.10
2023-03-28T15:52:14.725Z,2.50
2023-03-28T15:54:46.909Z,2.20
2023-03-28T15:57:16.460Z,1.90
2023-03-28T15:59:48.553Z,2.13
2023-03-28T16:02:37.738Z,2.22
2023-03-28T16:05:09.699Z,2.60
2023-03-28T16:07:48.609Z,2.53
2023-03-28T16:10:18.156Z,2.70
2023-03-28T16:13:18.910Z,2.00
2023-03-28T16:16:09.058Z,2.40
2023-03-28T16:19:00.299Z,2.55
2023-03-28T16:21:30.971Z,2.63
2023-03-28T16:23:59.652Z,3.17
2023-03-28T16:26:28.272Z,2.90
2023-03-28T16:28:56.982Z,2.13
2023-03-28T16:31:29.386Z,3.47
2023-03-28T16:33:58.393Z,4.35
2023-03-28T16:36:29.193Z,3.05
2023-03-28T16:38:58.254Z,2.88
2023-03-28T16:41:27.762Z,2.80
2023-03-28T16:43:56.340Z,3.13
2023-03-28T16:46:24.929Z,2.95
2023-03-28T16:48:54.852Z,3.70
2023-03-28T16:51:24.690Z,2.80
2023-03-28T16:53:53.843Z,3.13
2023-03-28T16:56:25.790Z,2.78
2023-03-28T16:59:00.489Z,2.90
2023-03-28T17:01:31.666Z,2.55
2023-03-28T17:04:01.604Z,2.60
2023-03-28T17:06:36.087Z,2.78
2023-03-28T17:09:09.536Z,2.95
2023-03-28T17:11:40.471Z,3.45
2023-03-28T17:14:09.657Z,3.00
2023-03-28T17:17:05.572Z,2.60
2023-03-28T17:19:56.187Z,3.30
2023-03-28T17:22:27.377Z,3.28
2023-03-28T17:25:02.045Z,3.28
2023-03-28T17:27:31.316Z,4.20
2023-03-28T17:29:59.903Z,3.10
2023-03-28T17:32:31.247Z,2.85
2023-03-28T17:35:01.365Z,3.45
2023-03-28T17:37:30.295Z,3.58
2023-03-28T17:39:59.166Z,3.20
2023-03-28T17:42:27.775Z,3.17
2023-03-28T17:44:56.421Z,3.47
2023-03-28T17:47:25.653Z,3.00
2023-03-28T17:49:56.114Z,3.17
2023-03-28T17:52:27.120Z,3.30
2023-03-28T17:54:55.757Z,2.40
2023-03-28T17:57:26.669Z,3.08
2023-03-28T17:59:55.741Z,3.47
2023-03-28T18:02:24.950Z,3.35
2023-03-28T18:05:06.772Z,3.10
2023-03-28T18:07:37.872Z,2.80
2023-03-28T18:10:11.632Z,2.83
2023-03-28T18:12:40.612Z,3.25
2023-03-28T18:15:12.432Z,3.30
2023-03-28T18:17:41.289Z,2.95
2023-03-28T18:20:14.980Z,2.88
2023-03-28T18:22:49.321Z,2.95
2023-03-28T18:25:17.833Z,3.30
2023-03-28T18:27:46.636Z,3.22
2023-03-28T18:30:15.143Z,2.78
2023-03-28T18:32:43.623Z,2.63
2023-03-28T18:35:12.802Z,2.65
2023-03-28T18:37:41.365Z,2.08
2023-03-28T18:40:14.444Z,2.13
2023-03-28T18:42:45.494Z,1.95
2023-03-28T18:45:14.227Z,2.08
2023-03-28T18:47:43.058Z,1.67
2023-03-28T18:50:13.701Z,1.92
2023-03-28T18:52:42.835Z,2.05
2023-03-28T18:55:14.413Z,1.55
2023-03-28T18:57:43.282Z,1.70
2023-03-28T19:00:18.625Z,1.90
2023-03-28T19:02:48.243Z,1.60
2023-03-28T19:05:17.043Z,1.83
2023-03-28T19:07:45.761Z,2.33
2023-03-28T19:10:17.792Z,1.92
2023-03-28T19:12:47.248Z,2.17
2023-03-28T19:15:17.045Z,1.85
2023-03-28T19:17:46.000Z,2.15
2023-03-28T19:20:15.760Z,2.25
2023-03-28T19:22:44.555Z,2.60
2023-03-28T19:25:16.268Z,1.85
2023-03-28T19:27:55.450Z,1.92
2023-03-28T19:30:23.919Z,1.55
2023-03-28T19:32:54.759Z,1.67
2023-03-28T19:35:25.941Z,2.30
2023-03-28T19:37:54.493Z,1.50
2023-03-28T19:40:23.691Z,2.17
2023-03-28T19:42:53.692Z,1.60
2023-03-28T19:45:22.252Z,1.50
2023-03-28T19:47:51.814Z,2.15
2023-03-28T19:50:20.786Z,2.80
2023-03-28T19:52:49.359Z,2.35
2023-03-28T19:55:18.377Z,2.63
2023-03-28T19:57:46.875Z,2.30
2023-03-28T20:00:17.257Z,1.85
2023-03-28T20:02:46.197Z,2.42
2023-03-28T20:05:14.648Z,2.13
2023-03-28T20:07:47.502Z,2.40
2023-03-28T20:10:22.641Z,2.42
2023-03-28T20:12:53.495Z,2.00
2023-03-28T20:15:25.701Z,2.33
2023-03-28T20:17:58.451Z,2.28
2023-03-28T20:20:31.101Z,1.92
2023-03-28T20:22:59.974Z,2.00
2023-03-28T20:25:28.937Z,2.22
2023-03-28T20:27:59.426Z,2.67
2023-03-28T20:30:30.360Z,2.33
2023-03-28T20:32:58.842Z,1.98
2023-03-28T20:35:29.775Z,2.05
2023-03-28T20:38:02.534Z,2.03
2023-03-28T20:40:31.154Z,1.83
2023-03-28T20:43:02.054Z,2.15
2023-03-28T20:45:33.917Z,1.83
2023-03-28T20:48:06.471Z,2.20
2023-03-28T20:50:36.782Z,1.75
2023-03-28T20:53:06.503Z,1.55
2023-03-28T20:55:35.853Z,2.17
2023-03-28T20:58:04.601Z,1.65
2023-03-28T21:00:35.842Z,1.83
2023-03-28T21:03:04.805Z,1.85
2023-03-28T21:05:35.658Z,1.80
2023-03-28T21:08:04.493Z,1.55
2023-03-28T21:10:33.358Z,1.55
2023-03-28T21:13:02.029Z,1.58
2023-03-28T21:15:31.248Z,1.70
2023-03-28T21:18:01.161Z,1.50
2023-03-28T21:20:29.578Z,1.38
2023-03-28T21:22:58.016Z,1.30
2023-03-28T21:25:26.537Z,1.73
2023-03-28T21:27:55.126Z,1.50
2023-03-28T21:30:23.700Z,1.55
2023-03-28T21:32:54.548Z,1.70
2023-03-28T21:35:27.337Z,1.33
2023-03-28T21:37:55.839Z,1.48
2023-03-28T21:40:24.750Z,1.42
2023-03-28T21:42:53.409Z,1.52
2023-03-28T21:45:22.197Z,1.52
2023-03-28T21:47:51.356Z,1.63
2023-03-28T21:50:20.234Z,1.50
2023-03-28T21:52:50.001Z,1.10
2023-03-28T21:55:18.705Z,1.25
2023-03-28T21:57:53.659Z,1.40
2023-03-28T22:00:22.453Z,1.40
2023-03-28T22:02:51.330Z,1.20
2023-03-28T22:05:29.066Z,1.45
2023-03-28T22:08:04.703Z,1.73
2023-03-28T22:10:37.853Z,1.15
2023-03-28T22:13:06.847Z,1.58
2023-03-28T22:15:38.582Z,1.20
2023-03-28T22:18:09.861Z,1.55
2023-03-28T22:20:43.875Z,1.30
2023-03-28T22:23:14.083Z,1.20
2023-03-28T22:25:45.100Z,1.55
2023-03-28T22:28:16.222Z,1.50
2023-03-28T22:30:44.721Z,1.50
2023-03-28T22:33:13.748Z,1.38
2023-03-28T22:35:42.575Z,1.52
2023-03-28T22:38:13.264Z,1.40
2023-03-28T22:40:43.093Z,1.17
2023-03-28T22:43:11.644Z,1.40
2023-03-28T22:45:42.971Z,1.83
2023-03-28T22:48:16.144Z,1.67
2023-03-28T22:50:45.433Z,1.23
2023-03-28T22:53:14.463Z,1.52
2023-03-28T22:55:45.381Z,1.70
2023-03-28T22:58:14.334Z,1.60
2023-03-28T23:00:43.873Z,1.83
2023-03-28T23:03:14.791Z,1.30
2023-03-28T23:05:43.695Z,1.80
2023-03-28T23:08:12.187Z,1.80
2023-03-28T23:10:41.115Z,1.48
2023-03-28T23:13:19.877Z,1.63
2023-03-28T23:15:48.695Z,1.40
2023-03-28T23:18:19.734Z,1.20
2023-03-28T23:20:53.123Z,1.52
2023-03-28T23:23:21.645Z,1.48
2023-03-28T23:25:50.324Z,1.40
2023-03-28T23:28:20.483Z,1.80
2023-03-28T23:30:51.199Z,1.50
2023-03-28T23:33:19.780Z,1.50
2023-03-28T23:35:48.535Z,1.65
2023-03-28T23:38:17.673Z,1.48
2023-03-28T23:40:48.515Z,1.65
2023-03-28T23:43:17.148Z,1.58
2023-03-28T23:45:46.992Z,1.70
2023-03-28T23:48:15.731Z,1.60
2023-03-28T23:50:46.603Z,1.45
2023-03-28T23:53:15.142Z,1.60
2023-03-28T23:55:43.863Z,1.65
2023-03-28T23:58:14.698Z,1.40
